createdAt,value
2023-04-08T00:00:08.192Z,3.28
2023-04-08T00:02:37.437Z,3.38
2023-04-08T00:05:05.377Z,3.38
2023-04-08T00:07:32.610Z,3.57
2023-04-08T00:09:59.715Z,3.54
2023-04-08T00:12:26.845Z,3.54
2023-04-08T00:14:53.933Z,3.64
2023-04-08T00:17:21.331Z,3.64
2023-04-08T00:19:48.423Z,3.68
2023-04-08T00:22:15.602Z,3.77
2023-04-08T00:24:43.280Z,3.76
2023-04-08T00:27:10.497Z,3.73
2023-04-08T00:29:37.952Z,3.69
2023-04-08T00:32:05.208Z,3.75
2023-04-08T00:34:32.660Z,3.66
2023-04-08T00:36:59.869Z,3.55
2023-04-08T00:39:27.106Z,3.53
2023-04-08T00:41:54.761Z,3.47
2023-04-08T00:44:21.912Z,3.31
2023-04-08T00:46:49.192Z,3.17
2023-04-08T00:49:17.692Z,3.15
2023-04-08T00:51:44.900Z,3.07
2023-04-08T00:54:12.034Z,2.98
2023-04-08T00:56:39.582Z,2.92
2023-04-08T00:59:06.809Z,2.94
2023-04-08T01:01:48.343Z,2.95
2023-04-08T01:04:44.871Z,2.98
2023-04-08T01:07:30.442Z,2.99
2023-04-08T01:10:04.187Z,3.11
2023-04-08T01:12:33.586Z,3.19
2023-04-08T01:15:09.243Z,3.20
2023-04-08T01:17:38.602Z,3.23
2023-04-08T01:20:07.775Z,3.27
2023-04-08T01:23:06.886Z,3.19
2023-04-08T01:25:36.961Z,3.13
2023-04-08T01:28:16.799Z,3.24
2023-04-08T01:30:47.470Z,3.33
2023-04-08T01:33:17.264Z,3.48
2023-04-08T01:35:46.344Z,3.52
2023-04-08T01:38:18.184Z,3.62
2023-04-08T01:40:47.177Z,3.64
2023-04-08T01:43:16.897Z,3.65
2023-04-08T01:45:46.634Z,3.63
2023-04-08T01:48:15.121Z,3.58
2023-04-08T01:50:44.180Z,3.56
2023-04-08T01:53:13.594Z,3.56
2023-04-08T01:55:42.267Z,3.59
2023-04-08T01:58:17.364Z,3.52
2023-04-08T02:00:45.347Z,3.53
2023-04-08T02:03:17.872Z,3.67
2023-04-08T02:05:46.901Z,3.55
2023-04-08T02:08:14.180Z,3.45
2023-04-08T02:10:41.352Z,3.48
2023-04-08T02:13:08.950Z,3.48
2023-04-08T02:15:42.426Z,3.39
2023-04-08T02:18:35.170Z,3.27
2023-04-08T02:21:11.701Z,3.14
2023-04-08T02:23:39.716Z,3.14
2023-04-08T02:26:15.858Z,3.06
2023-04-08T02:28:43.508Z,3.10
2023-04-08T02:31:16.039Z,2.97
2023-04-08T02:33:46.835Z,2.79
2023-04-08T02:36:16.295Z,2.74
2023-04-08T02:38:49.245Z,2.83
2023-04-08T02:41:17.326Z,2.90
2023-04-08T02:43:44.437Z,2.97
2023-04-08T02:46:12.225Z,2.90
2023-04-08T02:48:39.396Z,2.82
2023-04-08T02:51:06.716Z,2.73
2023-04-08T02:53:33.891Z,2.57
2023-04-08T02:56:01.423Z,2.56
2023-04-08T02:58:28.624Z,2.59
2023-04-08T03:00:56.009Z,2.58
2023-04-08T03:03:28.656Z,2.45
2023-04-08T03:05:56.683Z,2.43
2023-04-08T03:08:24.347Z,2.51
2023-04-08T03:10:51.804Z,2.24
2023-04-08T03:13:18.946Z,2.20
2023-04-08T03:15:46.428Z,2.99
2023-04-08T03:18:13.897Z,3.36
2023-04-08T03:20:41.376Z,3.38
2023-04-08T03:23:08.533Z,3.60
2023-04-08T03:26:08.127Z,3.25
2023-04-08T03:28:35.750Z,3.11
2023-04-08T03:31:06.646Z,3.06
2023-04-08T03:33:33.813Z,2.81
2023-04-08T03:36:00.939Z,2.60
2023-04-08T03:38:28.141Z,2.46
2023-04-08T03:40:55.262Z,2.25
2023-04-08T03:43:22.380Z,2.05
2023-04-08T03:45:49.535Z,2.09
2023-04-08T03:48:17.135Z,2.13
2023-04-08T03:50:44.195Z,2.19
2023-04-08T03:53:12.333Z,2.28
2023-04-08T03:56:12.804Z,2.17
2023-04-08T03:58:39.864Z,2.16
2023-04-08T04:01:07.034Z,2.38
2023-04-08T04:03:34.531Z,2.87
2023-04-08T04:06:01.721Z,3.09
2023-04-08T04:08:28.783Z,3.51
2023-04-08T04:10:55.913Z,3.81
2023-04-08T04:13:23.029Z,4.32
2023-04-08T04:15:50.256Z,4.54
2023-04-08T04:18:17.467Z,4.96
2023-04-08T04:20:44.718Z,5.05
2023-04-08T04:23:12.022Z,5.58
2023-04-08T04:25:42.078Z,5.60
2023-04-08T04:28:10.220Z,5.70
2023-04-08T04:30:38.687Z,5.85
2023-04-08T04:33:06.959Z,5.56
2023-04-08T04:35:34.322Z,5.90
2023-04-08T04:38:01.706Z,6.11
2023-04-08T04:40:28.803Z,6.04
2023-04-08T04:42:56.093Z,6.24
2023-04-08T04:45:23.195Z,6.02
2023-04-08T04:47:50.375Z,6.16
2023-04-08T04:50:17.618Z,6.24
2023-04-08T04:52:44.826Z,5.72
2023-04-08T04:55:11.885Z,6.20
2023-04-08T04:57:39.046Z,6.29
2023-04-08T05:00:06.912Z,6.38
2023-04-08T05:02:34.311Z,6.36
2023-04-08T05:05:01.630Z,6.60
2023-04-08T05:07:28.850Z,6.71
2023-04-08T05:09:56.345Z,6.36
2023-04-08T05:12:23.414Z,6.67
2023-04-08T05:14:50.511Z,6.88
2023-04-08T05:17:17.763Z,7.01
2023-04-08T05:19:44.874Z,7.16
2023-04-08T05:22:11.941Z,6.99
2023-04-08T05:24:39.140Z,7.23
2023-04-08T05:27:06.741Z,7.35
2023-04-08T05:29:33.787Z,7.23
2023-04-08T05:32:01.169Z,7.32
2023-04-08T05:34:28.259Z,7.53
2023-04-08T05:36:55.508Z,7.82
2023-04-08T05:39:22.539Z,7.95
2023-04-08T05:41:49.880Z,8.10
2023-04-08T05:44:16.991Z,8.21
2023-04-08T05:46:44.169Z,8.37
2023-04-08T05:49:11.300Z,8.48
2023-04-08T05:51:39.637Z,8.36
2023-04-08T05:54:06.896Z,8.23
2023-04-08T05:56:34.054Z,8.47
2023-04-08T05:59:01.677Z,8.56
2023-04-08T06:01:28.926Z,8.50
2023-04-08T06:03:56.927Z,8.68
2023-04-08T06:06:26.154Z,8.99
2023-04-08T06:08:53.304Z,8.85
2023-04-08T06:11:20.526Z,9.17
2023-04-08T06:13:48.272Z,9.19
2023-04-08T06:16:20.337Z,9.12
2023-04-08T06:18:49.184Z,9.21
2023-04-08T06:21:17.045Z,9.12
2023-04-08T06:23:44.304Z,8.92
2023-04-08T06:26:11.422Z,8.98
2023-04-08T06:28:38.501Z,8.95
2023-04-08T06:31:06.328Z,9.13
2023-04-08T06:33:33.448Z,9.50
2023-04-08T06:36:04.542Z,9.87
2023-04-08T06:38:34.798Z,10.00
2023-04-08T06:41:05.592Z,10.04
2023-04-08T06:43:34.423Z,9.79
2023-04-08T06:46:01.774Z,9.99
2023-04-08T06:48:30.898Z,9.90
2023-04-08T06:50:59.299Z,10.25
2023-04-08T06:53:29.446Z,10.24
2023-04-08T06:55:56.633Z,10.71
2023-04-08T06:58:23.908Z,10.51
2023-04-08T07:00:51.085Z,10.56
2023-04-08T07:03:18.297Z,10.44
2023-04-08T07:05:45.510Z,9.97
2023-04-08T07:08:12.582Z,10.19
2023-04-08T07:10:39.788Z,10.07
2023-04-08T07:13:06.955Z,10.26
2023-04-08T07:15:34.103Z,10.60
2023-04-08T07:18:01.261Z,10.94
2023-04-08T07:20:29.281Z,10.91
2023-04-08T07:22:58.008Z,10.49
2023-04-08T07:25:25.117Z,10.77
2023-04-08T07:27:53.027Z,10.92
2023-04-08T07:30:20.453Z,10.82
2023-04-08T07:32:47.660Z,10.88
2023-04-08T07:35:14.998Z,10.72
2023-04-08T07:37:42.038Z,10.82
2023-04-08T07:40:09.754Z,10.79
2023-04-08T07:42:37.734Z,10.51
2023-04-08T07:45:06.229Z,10.81
2023-04-08T07:47:33.400Z,10.72
2023-04-08T07:50:00.508Z,10.63
2023-04-08T07:52:27.755Z,10.99
2023-04-08T07:54:54.806Z,11.23
2023-04-08T07:57:22.286Z,11.20
2023-04-08T07:59:49.510Z,10.94
2023-04-08T08:02:16.685Z,10.93
2023-04-08T08:04:44.068Z,11.12
2023-04-08T08:07:11.513Z,11.24
2023-04-08T08:09:38.631Z,11.64
2023-04-08T08:12:06.387Z,11.54
2023-04-08T08:14:33.447Z,11.63
2023-04-08T08:17:01.651Z,11.50
2023-04-08T08:19:28.700Z,11.47
2023-04-08T08:21:56.457Z,11.70
2023-04-08T08:24:23.666Z,11.43
2023-04-08T08:26:50.840Z,11.17
2023-04-08T08:29:17.933Z,11.25
2023-04-08T08:31:45.093Z,11.67
2023-04-08T08:34:12.191Z,11.82
2023-04-08T08:36:39.337Z,12.03
2023-04-08T08:39:06.448Z,11.64
2023-04-08T08:41:36.098Z,11.79
2023-04-08T08:44:05.593Z,11.99
2023-04-08T08:46:32.883Z,12.27
2023-04-08T08:49:00.393Z,12.28
2023-04-08T08:51:28.726Z,11.82
2023-04-08T08:53:55.854Z,11.89
2023-04-08T08:56:23.006Z,12.24
2023-04-08T08:58:50.040Z,12.70
2023-04-08T09:01:39.046Z,12.56
2023-04-08T09:04:20.877Z,12.29
2023-04-08T09:06:52.749Z,12.03
2023-04-08T09:09:20.108Z,11.60
2023-04-08T09:11:47.802Z,11.61
2023-04-08T09:14:22.814Z,11.78
2023-04-08T09:16:50.901Z,11.88
2023-04-08T09:19:18.158Z,11.91
2023-04-08T09:21:45.571Z,11.63
2023-04-08T09:25:21.792Z,11.75
2023-04-08T09:27:48.867Z,12.16
2023-04-08T09:30:16.665Z,12.45
2023-04-08T09:32:49.917Z,12.10
2023-04-08T09:35:18.563Z,11.63
2023-04-08T09:37:46.648Z,11.72
2023-04-08T09:40:16.391Z,11.23
2023-04-08T09:42:50.691Z,11.85
2023-04-08T10:17:26.727Z,11.69
2023-04-08T10:19:54.593Z,12.17
2023-04-08T10:22:46.270Z,12.56
2023-04-08T10:25:16.894Z,12.77
2023-04-08T10:27:45.596Z,12.76
2023-04-08T10:30:33.521Z,12.85
2023-04-08T10:33:01.600Z,12.81
2023-04-08T10:35:33.236Z,12.96
2023-04-08T10:38:01.415Z,13.20
2023-04-08T10:40:28.639Z,13.52
2023-04-08T10:42:59.485Z,13.25
2023-04-08T10:45:26.750Z,13.68
2023-04-08T10:47:53.866Z,13.61
2023-04-08T10:50:24.252Z,13.77
2023-04-08T10:52:53.359Z,13.39
2023-04-08T10:55:25.557Z,13.15
2023-04-08T10:57:54.181Z,13.66
2023-04-08T11:00:39.474Z,13.70
2023-04-08T11:03:08.792Z,13.89
2023-04-08T11:05:39.395Z,13.54
2023-04-08T11:08:06.702Z,13.49
2023-04-08T11:10:38.955Z,13.16
2023-04-08T11:13:13.024Z,12.91
2023-04-08T11:15:40.200Z,13.15
2023-04-08T11:18:07.462Z,13.13
2023-04-08T11:20:37.240Z,12.94
2023-04-08T11:23:04.343Z,12.59
2023-04-08T11:25:32.173Z,12.51
2023-04-08T11:28:00.539Z,12.85
2023-04-08T11:30:29.320Z,13.26
2023-04-08T11:32:57.136Z,13.66
2023-04-08T11:35:24.418Z,13.68
2023-04-08T11:37:52.863Z,13.80
2023-04-08T11:40:22.285Z,13.86
2023-04-08T11:42:50.348Z,14.13
2023-04-08T11:45:22.481Z,14.43
2023-04-08T11:47:49.904Z,14.38
2023-04-08T11:50:24.916Z,14.02
2023-04-08T11:52:53.064Z,13.80
2023-04-08T11:55:23.077Z,13.78
2023-04-08T11:57:51.251Z,13.95
2023-04-08T12:00:19.321Z,14.29
2023-04-08T12:02:49.700Z,14.22
2023-04-08T12:05:17.799Z,13.88
2023-04-08T12:07:45.052Z,13.56
2023-04-08T12:10:12.477Z,13.23
2023-04-08T12:12:40.283Z,13.60
2023-04-08T12:15:08.530Z,13.87
2023-04-08T12:17:36.270Z,14.17
2023-04-08T12:20:04.418Z,14.37
2023-04-08T12:22:31.530Z,14.32
2023-04-08T12:24:59.289Z,14.05
2023-04-08T12:27:26.567Z,13.87
2023-04-08T12:29:53.603Z,14.04
2023-04-08T12:32:20.813Z,14.00
2023-04-08T12:34:47.974Z,14.10
2023-04-08T12:37:15.049Z,13.65
2023-04-08T12:39:42.108Z,13.50
2023-04-08T12:42:09.346Z,13.37
2023-04-08T12:44:36.548Z,13.45
2023-04-08T12:47:03.720Z,13.70
2023-04-08T12:49:39.521Z,13.67
2023-04-08T12:52:15.664Z,13.82
2023-04-08T12:54:42.743Z,13.10
2023-04-08T12:57:09.841Z,13.12
2023-04-08T12:59:38.195Z,13.16
2023-04-08T13:02:05.498Z,13.07
2023-04-08T13:04:32.641Z,13.13
2023-04-08T13:07:01.089Z,12.69
2023-04-08T13:09:28.523Z,12.33
2023-04-08T13:11:55.636Z,12.31
2023-04-08T13:14:22.703Z,12.30
2023-04-08T13:16:50.032Z,11.55
2023-04-08T13:19:17.191Z,11.83
2023-04-08T13:21:46.091Z,11.87
2023-04-08T13:24:13.563Z,11.94
2023-04-08T13:26:40.917Z,11.93
2023-04-08T13:29:07.959Z,11.82
2023-04-08T13:31:35.085Z,11.72
2023-04-08T13:34:02.251Z,11.86
2023-04-08T13:36:29.415Z,11.94
2023-04-08T13:38:56.898Z,11.61
2023-04-08T13:41:25.564Z,11.24
2023-04-08T13:43:52.753Z,11.21
2023-04-08T13:46:19.830Z,11.15
2023-04-08T13:48:46.981Z,11.36
2023-04-08T13:51:14.064Z,11.34
2023-04-08T13:53:41.117Z,11.20
2023-04-08T13:56:08.400Z,11.23
2023-04-08T13:58:38.145Z,11.00
2023-04-08T14:01:05.963Z,11.02
2023-04-08T14:03:33.384Z,10.83
2023-04-08T14:06:02.020Z,10.68
2023-04-08T14:08:29.306Z,10.51
2023-04-08T14:10:57.701Z,10.47
2023-04-08T14:13:24.863Z,10.13
2023-04-08T14:15:53.827Z,10.22
2023-04-08T14:18:21.026Z,10.22
2023-04-08T14:20:48.146Z,10.39
2023-04-08T14:23:17.087Z,10.31
2023-04-08T14:25:44.245Z,10.37
2023-04-08T14:28:11.657Z,10.28
2023-04-08T14:30:38.789Z,10.15
2023-04-08T14:33:06.432Z,10.03
2023-04-08T14:35:33.803Z,10.21
2023-04-08T14:38:01.273Z,10.37
2023-04-08T14:40:28.478Z,10.08
2023-04-08T14:42:55.557Z,10.54
2023-04-08T14:45:22.634Z,10.48
2023-04-08T14:47:49.749Z,10.13
2023-04-08T14:50:17.009Z,9.93
2023-04-08T14:52:45.473Z,9.82
2023-04-08T14:55:12.663Z,9.84
2023-04-08T14:57:39.801Z,9.67
2023-04-08T15:00:07.780Z,9.58
2023-04-08T15:02:34.953Z,9.38
2023-04-08T15:05:02.170Z,9.51
2023-04-08T15:07:29.244Z,9.70
2023-04-08T15:09:57.149Z,9.40
2023-04-08T15:12:24.660Z,9.65
2023-04-08T15:14:51.804Z,9.64
2023-04-08T15:17:19.058Z,9.51
2023-04-08T15:19:46.943Z,9.34
2023-04-08T15:22:14.072Z,9.11
2023-04-08T15:24:42.710Z,8.94
2023-04-08T15:27:09.943Z,9.12
2023-04-08T15:29:37.134Z,9.05
2023-04-08T15:32:04.248Z,9.29
2023-04-08T15:34:31.346Z,9.43
2023-04-08T15:36:58.611Z,9.45
2023-04-08T15:39:26.032Z,9.42
2023-04-08T15:41:53.398Z,9.27
2023-04-08T15:44:20.722Z,9.09
2023-04-08T15:46:47.874Z,8.65
2023-04-08T15:49:15.047Z,8.86
2023-04-08T15:51:44.676Z,8.89
2023-04-08T15:54:11.960Z,8.85
2023-04-08T15:56:39.085Z,8.54
2023-04-08T15:59:06.415Z,8.56
2023-04-08T16:01:33.906Z,7.98
2023-04-08T16:04:01.307Z,8.33
2023-04-08T16:06:28.570Z,8.46
2023-04-08T16:08:56.885Z,8.78
2023-04-08T16:11:25.353Z,8.74
2023-04-08T16:13:52.855Z,8.68
2023-04-08T16:16:20.193Z,8.65
2023-04-08T16:18:47.626Z,8.36
2023-04-08T16:21:14.917Z,8.42
2023-04-08T16:23:42.191Z,8.34
2023-04-08T16:26:09.305Z,8.44
2023-04-08T16:28:37.291Z,8.36
2023-04-08T16:31:04.485Z,8.37
2023-04-08T16:33:32.254Z,8.26
2023-04-08T16:36:00.694Z,8.20
2023-04-08T16:38:28.067Z,8.07
2023-04-08T16:40:58.555Z,7.96
2023-04-08T16:43:26.359Z,7.87
2023-04-08T16:45:54.178Z,7.67
2023-04-08T16:48:21.384Z,7.44
2023-04-08T16:50:48.434Z,7.37
2023-04-08T16:53:15.734Z,7.50
2023-04-08T16:55:42.774Z,7.61
2023-04-08T16:58:10.000Z,7.67
2023-04-08T17:00:37.774Z,7.59
2023-04-08T17:03:05.055Z,7.54
2023-04-08T17:05:32.252Z,7.58
2023-04-08T17:07:59.639Z,7.65
2023-04-08T17:10:26.894Z,7.79
2023-04-08T17:12:54.006Z,7.65
2023-04-08T17:15:21.256Z,7.58
2023-04-08T17:17:48.732Z,7.49
2023-04-08T17:20:15.860Z,7.44
2023-04-08T17:22:43.323Z,7.57
2023-04-08T17:25:10.935Z,7.67
2023-04-08T17:27:38.041Z,7.55
2023-04-08T17:30:05.594Z,7.43
2023-04-08T17:32:33.017Z,7.37
2023-04-08T17:35:00.156Z,7.21
2023-04-08T17:37:27.267Z,7.27
2023-04-08T17:39:54.383Z,7.48
2023-04-08T17:42:22.984Z,7.51
2023-04-08T17:44:50.099Z,7.37
2023-04-08T17:47:17.382Z,7.36
2023-04-08T17:49:44.528Z,7.22
2023-04-08T17:52:11.863Z,7.25
2023-04-08T17:54:39.157Z,7.32
2023-04-08T17:57:06.510Z,7.43
2023-04-08T17:59:34.165Z,7.27
2023-04-08T18:02:01.382Z,7.22
2023-04-08T18:04:29.978Z,7.18
2023-04-08T18:06:57.309Z,7.21
2023-04-08T18:09:24.390Z,7.23
2023-04-08T18:11:51.536Z,7.17
2023-04-08T18:15:27.687Z,7.14
2023-04-08T18:17:56.036Z,7.00
2023-04-08T18:20:23.168Z,6.95
2023-04-08T18:22:50.316Z,7.01
2023-04-08T18:25:17.673Z,7.07
2023-04-08T18:27:44.829Z,6.85
2023-04-08T18:30:12.224Z,6.84
2023-04-08T18:32:39.293Z,6.55
2023-04-08T18:35:06.621Z,6.31
2023-04-08T18:37:34.752Z,6.71
2023-04-08T18:40:03.822Z,6.83
2023-04-08T18:42:31.738Z,6.94
2023-04-08T18:44:58.839Z,6.81
2023-04-08T18:51:55.484Z,6.62
2023-04-08T18:54:28.773Z,6.75
2023-04-08T18:56:56.662Z,6.83
2023-04-08T18:59:23.816Z,6.87
2023-04-08T19:01:51.203Z,6.68
2023-04-08T19:04:18.433Z,6.47
2023-04-08T19:06:45.623Z,6.60
2023-04-08T19:09:14.464Z,6.68
2023-04-08T19:11:41.719Z,6.78
2023-04-08T19:14:08.952Z,6.84
2023-04-08T19:16:36.090Z,6.64
2023-04-08T19:19:03.605Z,6.05
2023-04-08T19:21:31.894Z,5.94
2023-04-08T19:23:59.074Z,6.02
2023-04-08T19:26:26.195Z,6.13
2023-04-08T19:28:53.427Z,5.60
2023-04-08T19:31:21.663Z,5.40
2023-04-08T19:33:48.968Z,5.39
2023-04-08T19:36:16.390Z,5.45
2023-04-08T19:38:43.494Z,5.93
2023-04-08T19:41:11.083Z,6.14
2023-04-08T19:43:38.220Z,6.23
2023-04-08T19:47:14.037Z,5.70
2023-04-08T19:49:41.131Z,5.80
2023-04-08T19:52:08.257Z,6.20
2023-04-08T19:54:35.522Z,6.44
2023-04-08T19:57:02.692Z,6.38
2023-04-08T19:59:29.864Z,5.33
2023-04-08T20:01:57.012Z,4.92
2023-04-08T20:04:24.345Z,5.09
2023-04-08T20:06:51.625Z,5.63
2023-04-08T20:09:18.721Z,5.92
2023-04-08T20:11:45.809Z,6.14
2023-04-08T20:14:13.011Z,6.37
2023-04-08T20:16:40.177Z,6.26
2023-04-08T20:19:07.257Z,5.48
2023-04-08T20:21:56.309Z,5.41
2023-04-08T20:24:23.871Z,5.43
2023-04-08T20:26:52.504Z,5.57
2023-04-08T20:29:19.893Z,5.59
2023-04-08T20:31:47.557Z,5.17
2023-04-08T20:34:14.826Z,5.05
2023-04-08T20:36:42.413Z,5.12
2023-04-08T20:39:12.929Z,5.33
2023-04-08T20:41:40.043Z,5.59
2023-04-08T20:44:09.817Z,5.17
2023-04-08T20:46:37.933Z,4.39
2023-04-08T20:49:05.871Z,3.91
2023-04-08T20:51:33.893Z,3.48
2023-04-08T20:54:01.174Z,3.38
2023-04-08T20:56:28.556Z,3.48
2023-04-08T20:58:58.238Z,3.38
2023-04-08T21:01:27.089Z,3.38
2023-04-08T21:07:45.030Z,3.73
2023-04-08T21:10:14.892Z,4.01
2023-04-08T21:12:41.959Z,4.11
2023-04-08T21:15:09.777Z,3.97
2023-04-08T21:17:37.426Z,3.83
2023-04-08T21:20:05.533Z,3.65
2023-04-08T21:22:32.935Z,3.73
2023-04-08T21:25:00.225Z,3.85
2023-04-08T21:27:29.290Z,3.79
2023-04-08T21:29:56.760Z,3.72
2023-04-08T21:32:24.439Z,3.81
2023-04-08T21:34:54.660Z,3.88
2023-04-08T21:37:22.890Z,4.03
2023-04-08T21:39:50.514Z,4.38
2023-04-08T21:42:17.873Z,4.28
2023-04-08T21:44:44.928Z,4.45
2023-04-08T21:47:12.020Z,4.40
2023-04-08T21:49:39.149Z,4.85
2023-04-08T21:52:06.886Z,5.42
2023-04-08T21:54:34.103Z,5.65
2023-04-08T21:57:01.620Z,5.99
2023-04-08T21:59:28.763Z,6.24
2023-04-08T22:01:56.764Z,6.31
2023-04-08T22:04:23.909Z,6.25
2023-04-08T22:06:51.406Z,6.34
2023-04-08T22:09:19.513Z,6.34
2023-04-08T22:11:46.596Z,6.38
2023-04-08T22:14:14.122Z,6.61
2023-04-08T22:16:41.859Z,6.74
2023-04-08T22:19:09.061Z,6.70
2023-04-08T22:21:36.490Z,6.42
2023-04-08T22:24:03.703Z,6.57
2023-04-08T22:26:30.814Z,6.83
2023-04-08T22:28:57.892Z,6.93
2023-04-08T22:31:25.053Z,6.42
2023-04-08T22:33:52.340Z,6.43
2023-04-08T22:36:19.533Z,6.77
2023-04-08T22:38:46.624Z,6.96
2023-04-08T22:41:23.827Z,6.80
2023-04-08T22:43:51.497Z,6.27
2023-04-08T22:46:20.211Z,5.72
2023-04-08T22:48:48.513Z,5.37
2023-04-08T22:51:15.814Z,5.24
2023-04-08T22:53:43.859Z,5.15
2023-04-08T22:56:11.147Z,4.96
2023-04-08T22:58:38.250Z,4.13
2023-04-08T23:01:17.264Z,3.82
2023-04-08T23:03:44.810Z,3.56
2023-04-08T23:06:11.932Z,3.17
2023-04-08T23:08:39.387Z,3.09
2023-04-08T23:11:07.252Z,2.87
2023-04-08T23:13:34.853Z,2.65
2023-04-08T23:16:02.507Z,2.37
2023-04-08T23:18:29.801Z,2.16
2023-04-08T23:20:58.216Z,2.00
2023-04-08T23:23:25.792Z,2.08
2023-04-08T23:25:55.717Z,2.08
2023-04-08T23:28:23.419Z,1.90
2023-04-08T23:30:50.529Z,1.86
2023-04-08T23:33:17.762Z,1.86
2023-04-08T23:35:45.159Z,1.94
2023-04-08T23:38:12.347Z,1.91
2023-04-08T23:40:39.621Z,1.92
2023-04-08T23:43:06.704Z,1.89
2023-04-08T23:45:33.816Z,1.83
2023-04-08T23:48:01.018Z,1.85
2023-04-08T23:50:28.378Z,2.05
2023-04-08T23:52:55.509Z,1.98
2023-04-08T23:55:22.608Z,2.08
2023-04-08T23:57:50.955Z,2.33
